Ringgold, Texas
Current Conditions -  °F | °C
As of 8:15 PM on Saturday 25 Oct 2014 (Local Time) from K0F2 Reporting Station
Clear Clear  
Wind Chill: 74°   Ceiling: Unl
Heat Index: 74°   Visibility: 10mi
Dew Point: 61°   Wind: 5mph
Humidity: 64%   Direction: 140°SE
Pressure: 30.05"   Gusts: NA
Location:  33.82°N, 97.94°W
Report Text: K0F2 260115Z AUTO 14004KT 10SM CLR 23/16 A3005 RMK AO2 T02320160
Loading
Personal Weather Stations






























Interactive Weather Map
Tropical Storm Tracking
New forecast layout! Learn more

10-Day Weather Forecast

Advertisements
Track Severe Weather on mobile